KCDW/CDW METAR and TAF weather

Enter ICAO airport designator
Station Type Date Time Source
KCDW METAR 2022/05/24 10:53 UTC NOAA

KCDW 241053Z 09008KT 10SM OVC090 17/10 A3027 RMK AO2 SLP256 T01720100


Station Type Date Time Source
KCDW Decoded METAR 2022/05/24 10:53 UTC NOAA

CALDWELL ESSEX COUNTY AIRPORT , NJ, United States (KCDW) 40-53N 074-17W 64M
May 24, 2022 - 06:53 AM EDT / 2022.05.24 1053 UTC
Wind: from the E (090 degrees) at 9 MPH (8 KT):0
Visibility: 10 mile(s):0
Sky conditions: overcast
Temperature: 63.0 F (17.2 C)
Dew Point: 50.0 F (10.0 C)
Relative Humidity: 62%
Pressure (altimeter): 30.27 in. Hg (1025 hPa)
ob: KCDW 241053Z 09008KT 10SM OVC090 17/10 A3027 RMK AO2 SLP256 T01720100
cycle: 11

Station Type Date Time Source
KCDW TAF UTC NOAA

Error!

Example: see airport list